sensor_id;sensor_type;location;lat;lon;timestamp;P1;durP1;ratioP1;P2;durP2;ratioP2
44588;SDS011;30298;52.562;13.414;2022-12-19T00:01:29;32.87;;;12.87;;
44588;SDS011;30298;52.562;13.414;2022-12-19T00:03:55;31.48;;;13.82;;
44588;SDS011;30298;52.562;13.414;2022-12-19T00:06:21;28.90;;;13.70;;
44588;SDS011;30298;52.562;13.414;2022-12-19T00:08:48;28.60;;;13.23;;
44588;SDS011;30298;52.562;13.414;2022-12-19T00:11:14;29.05;;;14.05;;
44588;SDS011;30298;52.562;13.414;2022-12-19T00:13:40;30.60;;;13.05;;
44588;SDS011;30298;52.562;13.414;2022-12-19T00:16:08;31.70;;;13.57;;
44588;SDS011;30298;52.562;13.414;2022-12-19T00:18:34;34.85;;;14.25;;
44588;SDS011;30298;52.562;13.414;2022-12-19T00:21:02;33.20;;;14.43;;
44588;SDS011;30298;52.562;13.414;2022-12-19T00:23:28;31.48;;;12.77;;
44588;SDS011;30298;52.562;13.414;2022-12-19T00:25:53;31.67;;;13.30;;
44588;SDS011;30298;52.562;13.414;2022-12-19T00:28:19;30.97;;;13.83;;
44588;SDS011;30298;52.562;13.414;2022-12-19T00:30:44;34.25;;;13.00;;
44588;SDS011;30298;52.562;13.414;2022-12-19T00:33:09;33.73;;;13.13;;
44588;SDS011;30298;52.562;13.414;2022-12-19T00:35:35;26.63;;;12.50;;
44588;SDS011;30298;52.562;13.414;2022-12-19T00:38:00;38.23;;;14.37;;
44588;SDS011;30298;52.562;13.414;2022-12-19T00:40:26;27.60;;;12.07;;
44588;SDS011;30298;52.562;13.414;2022-12-19T00:42:52;30.93;;;13.93;;
44588;SDS011;30298;52.562;13.414;2022-12-19T00:45:17;29.27;;;12.67;;
44588;SDS011;30298;52.562;13.414;2022-12-19T00:47:42;30.37;;;13.17;;
44588;SDS011;30298;52.562;13.414;2022-12-19T00:50:08;30.93;;;13.97;;
44588;SDS011;30298;52.562;13.414;2022-12-19T00:52:33;24.30;;;12.35;;
44588;SDS011;30298;52.562;13.414;2022-12-19T00:54:58;31.50;;;14.43;;
44588;SDS011;30298;52.562;13.414;2022-12-19T00:57:24;33.23;;;15.37;;
44588;SDS011;30298;52.562;13.414;2022-12-19T00:59:49;29.70;;;14.23;;
44588;SDS011;30298;52.562;13.414;2022-12-19T01:02:14;34.27;;;13.30;;
44588;SDS011;30298;52.562;13.414;2022-12-19T01:04:40;29.97;;;13.10;;
44588;SDS011;30298;52.562;13.414;2022-12-19T01:07:05;27.00;;;12.38;;
44588;SDS011;30298;52.562;13.414;2022-12-19T01:09:33;27.50;;;12.73;;
44588;SDS011;30298;52.562;13.414;2022-12-19T01:11:58;31.92;;;13.77;;
44588;SDS011;30298;52.562;13.414;2022-12-19T01:14:42;30.42;;;12.80;;
44588;SDS011;30298;52.562;13.414;2022-12-19T01:17:07;27.23;;;11.63;;
44588;SDS011;30298;52.562;13.414;2022-12-19T01:19:33;30.50;;;12.80;;
44588;SDS011;30298;52.562;13.414;2022-12-19T01:21:58;32.83;;;12.95;;
44588;SDS011;30298;52.562;13.414;2022-12-19T01:24:24;26.07;;;10.93;;
44588;SDS011;30298;52.562;13.414;2022-12-19T01:26:51;32.63;;;12.27;;
44588;SDS011;30298;52.562;13.414;2022-12-19T01:29:17;27.23;;;12.40;;
44588;SDS011;30298;52.562;13.414;2022-12-19T01:31:42;26.10;;;12.10;;
44588;SDS011;30298;52.562;13.414;2022-12-19T01:34:07;29.73;;;12.40;;
44588;SDS011;30298;52.562;13.414;2022-12-19T01:36:32;27.83;;;12.00;;
44588;SDS011;30298;52.562;13.414;2022-12-19T01:38:59;29.05;;;12.80;;
44588;SDS011;30298;52.562;13.414;2022-12-19T01:41:24;26.77;;;12.20;;
44588;SDS011;30298;52.562;13.414;2022-12-19T01:43:54;22.77;;;11.67;;
44588;SDS011;30298;52.562;13.414;2022-12-19T01:46:25;23.75;;;12.25;;
44588;SDS011;30298;52.562;13.414;2022-12-19T01:48:51;28.23;;;12.70;;
44588;SDS011;30298;52.562;13.414;2022-12-19T01:51:17;23.30;;;11.57;;
44588;SDS011;30298;52.562;13.414;2022-12-19T01:53:56;25.30;;;11.63;;
44588;SDS011;30298;52.562;13.414;2022-12-19T01:56:23;33.05;;;13.73;;
44588;SDS011;30298;52.562;13.414;2022-12-19T01:58:50;28.67;;;12.95;;
44588;SDS011;30298;52.562;13.414;2022-12-19T02:01:17;30.35;;;12.60;;
44588;SDS011;30298;52.562;13.414;2022-12-19T02:03:42;27.77;;;13.10;;
44588;SDS011;30298;52.562;13.414;2022-12-19T02:08:34;27.58;;;13.05;;
44588;SDS011;30298;52.562;13.414;2022-12-19T02:10:59;30.30;;;11.88;;
44588;SDS011;30298;52.562;13.414;2022-12-19T02:13:25;29.60;;;12.40;;
44588;SDS011;30298;52.562;13.414;2022-12-19T02:16:07;34.77;;;14.73;;
44588;SDS011;30298;52.562;13.414;2022-12-19T02:28:50;33.92;;;14.45;;
44588;SDS011;30298;52.562;13.414;2022-12-19T02:31:38;32.30;;;13.75;;
44588;SDS011;30298;52.562;13.414;2022-12-19T02:36:46;30.13;;;13.73;;
44588;SDS011;30298;52.562;13.414;2022-12-19T02:39:23;30.70;;;13.25;;
44588;SDS011;30298;52.562;13.414;2022-12-19T02:41:51;32.63;;;13.80;;
44588;SDS011;30298;52.562;13.414;2022-12-19T02:46:49;32.72;;;13.55;;
44588;SDS011;30298;52.562;13.414;2022-12-19T02:49:16;30.48;;;13.68;;
44588;SDS011;30298;52.562;13.414;2022-12-19T02:51:41;34.50;;;13.53;;
44588;SDS011;30298;52.562;13.414;2022-12-19T02:54:06;32.90;;;14.73;;
44588;SDS011;30298;52.562;13.414;2022-12-19T03:01:56;34.08;;;13.70;;
44588;SDS011;30298;52.562;13.414;2022-12-19T03:07:33;35.20;;;13.63;;
44588;SDS011;30298;52.562;13.414;2022-12-19T03:12:39;33.22;;;13.05;;
44588;SDS011;30298;52.562;13.414;2022-12-19T03:15:08;30.42;;;14.60;;
44588;SDS011;30298;52.562;13.414;2022-12-19T03:17:35;29.73;;;13.27;;
44588;SDS011;30298;52.562;13.414;2022-12-19T03:20:04;33.92;;;14.38;;
44588;SDS011;30298;52.562;13.414;2022-12-19T03:22:30;40.13;;;14.80;;
44588;SDS011;30298;52.562;13.414;2022-12-19T03:24:55;30.27;;;13.00;;
44588;SDS011;30298;52.562;13.414;2022-12-19T03:27:25;31.17;;;13.93;;
44588;SDS011;30298;52.562;13.414;2022-12-19T03:29:53;31.67;;;14.93;;
44588;SDS011;30298;52.562;13.414;2022-12-19T03:32:19;37.25;;;14.68;;
44588;SDS011;30298;52.562;13.414;2022-12-19T03:34:56;33.90;;;13.65;;
44588;SDS011;30298;52.562;13.414;2022-12-19T03:37:24;36.38;;;14.70;;
44588;SDS011;30298;52.562;13.414;2022-12-19T03:39:52;35.90;;;14.05;;
44588;SDS011;30298;52.562;13.414;2022-12-19T03:42:18;34.75;;;15.73;;
44588;SDS011;30298;52.562;13.414;2022-12-19T03:45:04;38.22;;;15.73;;
44588;SDS011;30298;52.562;13.414;2022-12-19T03:47:34;34.50;;;14.25;;
44588;SDS011;30298;52.562;13.414;2022-12-19T03:50:01;37.33;;;15.10;;
44588;SDS011;30298;52.562;13.414;2022-12-19T03:52:41;31.20;;;14.57;;
44588;SDS011;30298;52.562;13.414;2022-12-19T03:55:11;35.38;;;15.63;;
44588;SDS011;30298;52.562;13.414;2022-12-19T03:57:45;36.30;;;15.23;;
44588;SDS011;30298;52.562;13.414;2022-12-19T04:00:12;32.20;;;14.63;;
44588;SDS011;30298;52.562;13.414;2022-12-19T04:02:40;32.28;;;14.95;;
44588;SDS011;30298;52.562;13.414;2022-12-19T04:05:07;36.95;;;16.92;;
44588;SDS011;30298;52.562;13.414;2022-12-19T04:07:33;33.55;;;14.43;;
44588;SDS011;30298;52.562;13.414;2022-12-19T04:09:59;35.47;;;14.80;;
44588;SDS011;30298;52.562;13.414;2022-12-19T04:12:29;43.38;;;16.40;;
44588;SDS011;30298;52.562;13.414;2022-12-19T04:14:55;33.13;;;15.15;;
44588;SDS011;30298;52.562;13.414;2022-12-19T04:22:43;35.75;;;16.52;;
44588;SDS011;30298;52.562;13.414;2022-12-19T04:25:13;36.55;;;15.13;;
44588;SDS011;30298;52.562;13.414;2022-12-19T04:27:40;42.53;;;16.30;;
44588;SDS011;30298;52.562;13.414;2022-12-19T04:30:07;34.05;;;15.60;;
44588;SDS011;30298;52.562;13.414;2022-12-19T04:32:34;35.10;;;15.73;;
44588;SDS011;30298;52.562;13.414;2022-12-19T04:35:00;37.33;;;15.30;;
44588;SDS011;30298;52.562;13.414;2022-12-19T04:37:27;34.15;;;15.15;;
44588;SDS011;30298;52.562;13.414;2022-12-19T04:39:52;26.75;;;13.45;;
44588;SDS011;30298;52.562;13.414;2022-12-19T04:42:17;35.07;;;14.87;;
44588;SDS011;30298;52.562;13.414;2022-12-19T04:44:43;33.75;;;14.63;;
44588;SDS011;30298;52.562;13.414;2022-12-19T04:47:08;33.90;;;14.75;;
44588;SDS011;30298;52.562;13.414;2022-12-19T04:49:34;32.73;;;14.87;;
44588;SDS011;30298;52.562;13.414;2022-12-19T04:51:59;31.33;;;13.90;;
44588;SDS011;30298;52.562;13.414;2022-12-19T04:54:24;36.33;;;13.67;;
44588;SDS011;30298;52.562;13.414;2022-12-19T04:56:51;31.77;;;14.63;;
44588;SDS011;30298;52.562;13.414;2022-12-19T04:59:16;33.65;;;16.00;;
44588;SDS011;30298;52.562;13.414;2022-12-19T05:01:41;37.33;;;16.37;;
44588;SDS011;30298;52.562;13.414;2022-12-19T05:04:06;41.80;;;15.67;;
44588;SDS011;30298;52.562;13.414;2022-12-19T05:06:32;34.60;;;14.67;;
44588;SDS011;30298;52.562;13.414;2022-12-19T05:08:57;36.27;;;15.70;;
44588;SDS011;30298;52.562;13.414;2022-12-19T05:11:22;33.40;;;14.50;;
44588;SDS011;30298;52.562;13.414;2022-12-19T05:13:47;33.97;;;15.40;;
44588;SDS011;30298;52.562;13.414;2022-12-19T05:16:14;32.58;;;14.35;;
44588;SDS011;30298;52.562;13.414;2022-12-19T05:18:39;37.72;;;15.85;;
44588;SDS011;30298;52.562;13.414;2022-12-19T05:21:05;34.95;;;14.25;;
44588;SDS011;30298;52.562;13.414;2022-12-19T05:23:30;35.47;;;16.43;;
44588;SDS011;30298;52.562;13.414;2022-12-19T05:25:56;35.60;;;14.55;;
44588;SDS011;30298;52.562;13.414;2022-12-19T05:28:21;34.50;;;15.25;;
44588;SDS011;30298;52.562;13.414;2022-12-19T05:30:47;38.73;;;16.47;;
44588;SDS011;30298;52.562;13.414;2022-12-19T05:33:12;32.20;;;14.43;;
44588;SDS011;30298;52.562;13.414;2022-12-19T05:35:37;34.53;;;16.67;;
44588;SDS011;30298;52.562;13.414;2022-12-19T05:38:03;39.10;;;15.88;;
44588;SDS011;30298;52.562;13.414;2022-12-19T05:40:29;34.85;;;14.43;;
44588;SDS011;30298;52.562;13.414;2022-12-19T05:42:54;37.20;;;15.10;;
44588;SDS011;30298;52.562;13.414;2022-12-19T05:45:19;36.87;;;14.57;;
44588;SDS011;30298;52.562;13.414;2022-12-19T05:47:45;33.77;;;13.80;;
44588;SDS011;30298;52.562;13.414;2022-12-19T05:50:11;34.75;;;15.55;;
44588;SDS011;30298;52.562;13.414;2022-12-19T05:52:37;33.75;;;13.73;;
44588;SDS011;30298;52.562;13.414;2022-12-19T05:55:03;40.80;;;16.48;;
44588;SDS011;30298;52.562;13.414;2022-12-19T05:57:29;37.53;;;14.65;;
44588;SDS011;30298;52.562;13.414;2022-12-19T05:59:54;38.73;;;16.03;;
44588;SDS011;30298;52.562;13.414;2022-12-19T06:02:20;33.90;;;15.47;;
44588;SDS011;30298;52.562;13.414;2022-12-19T06:04:45;35.03;;;15.90;;
44588;SDS011;30298;52.562;13.414;2022-12-19T06:07:10;30.20;;;15.17;;
44588;SDS011;30298;52.562;13.414;2022-12-19T06:09:35;34.77;;;15.90;;
44588;SDS011;30298;52.562;13.414;2022-12-19T06:12:01;40.70;;;14.07;;
44588;SDS011;30298;52.562;13.414;2022-12-19T06:14:26;31.17;;;15.57;;
44588;SDS011;30298;52.562;13.414;2022-12-19T06:16:51;32.30;;;13.60;;
44588;SDS011;30298;52.562;13.414;2022-12-19T06:19:20;29.47;;;13.70;;
44588;SDS011;30298;52.562;13.414;2022-12-19T06:21:45;31.60;;;13.75;;
44588;SDS011;30298;52.562;13.414;2022-12-19T06:24:10;34.37;;;14.47;;
44588;SDS011;30298;52.562;13.414;2022-12-19T06:26:35;33.13;;;14.70;;
44588;SDS011;30298;52.562;13.414;2022-12-19T06:29:01;30.73;;;13.23;;
44588;SDS011;30298;52.562;13.414;2022-12-19T06:31:27;32.10;;;13.95;;
44588;SDS011;30298;52.562;13.414;2022-12-19T06:33:53;35.73;;;17.27;;
44588;SDS011;30298;52.562;13.414;2022-12-19T06:36:22;30.00;;;14.23;;
44588;SDS011;30298;52.562;13.414;2022-12-19T06:38:48;36.67;;;14.82;;
44588;SDS011;30298;52.562;13.414;2022-12-19T06:41:14;33.90;;;13.57;;
44588;SDS011;30298;52.562;13.414;2022-12-19T06:43:59;30.90;;;14.45;;
44588;SDS011;30298;52.562;13.414;2022-12-19T06:46:24;34.28;;;14.95;;
44588;SDS011;30298;52.562;13.414;2022-12-19T06:48:50;37.90;;;15.73;;
44588;SDS011;30298;52.562;13.414;2022-12-19T06:51:15;32.38;;;15.85;;
44588;SDS011;30298;52.562;13.414;2022-12-19T06:53:40;32.30;;;13.60;;
44588;SDS011;30298;52.562;13.414;2022-12-19T06:56:06;33.67;;;15.00;;
44588;SDS011;30298;52.562;13.414;2022-12-19T06:58:31;32.50;;;15.10;;
44588;SDS011;30298;52.562;13.414;2022-12-19T07:00:57;32.75;;;14.52;;
44588;SDS011;30298;52.562;13.414;2022-12-19T07:03:23;38.20;;;14.03;;
44588;SDS011;30298;52.562;13.414;2022-12-19T07:05:49;32.67;;;14.40;;
44588;SDS011;30298;52.562;13.414;2022-12-19T07:08:14;33.33;;;14.37;;
44588;SDS011;30298;52.562;13.414;2022-12-19T07:10:39;33.30;;;15.03;;
44588;SDS011;30298;52.562;13.414;2022-12-19T07:13:05;27.63;;;13.23;;
44588;SDS011;30298;52.562;13.414;2022-12-19T07:15:30;29.33;;;12.40;;
44588;SDS011;30298;52.562;13.414;2022-12-19T07:17:57;33.35;;;14.63;;
44588;SDS011;30298;52.562;13.414;2022-12-19T07:20:23;28.88;;;14.13;;
44588;SDS011;30298;52.562;13.414;2022-12-19T07:22:50;29.45;;;12.48;;
44588;SDS011;30298;52.562;13.414;2022-12-19T07:25:15;30.43;;;14.30;;
44588;SDS011;30298;52.562;13.414;2022-12-19T07:27:41;30.60;;;13.80;;
44588;SDS011;30298;52.562;13.414;2022-12-19T07:30:07;32.20;;;14.07;;
44588;SDS011;30298;52.562;13.414;2022-12-19T07:32:33;31.13;;;14.02;;
44588;SDS011;30298;52.562;13.414;2022-12-19T07:34:58;33.90;;;15.00;;
44588;SDS011;30298;52.562;13.414;2022-12-19T07:37:23;29.70;;;13.60;;
44588;SDS011;30298;52.562;13.414;2022-12-19T07:39:49;34.33;;;14.87;;
44588;SDS011;30298;52.562;13.414;2022-12-19T07:42:14;29.30;;;14.23;;
44588;SDS011;30298;52.562;13.414;2022-12-19T07:44:39;30.13;;;13.60;;
44588;SDS011;30298;52.562;13.414;2022-12-19T07:47:05;34.73;;;14.30;;
44588;SDS011;30298;52.562;13.414;2022-12-19T07:49:30;35.83;;;14.03;;
44588;SDS011;30298;52.562;13.414;2022-12-19T07:51:55;33.67;;;14.23;;
44588;SDS011;30298;52.562;13.414;2022-12-19T07:54:21;34.33;;;14.97;;
44588;SDS011;30298;52.562;13.414;2022-12-19T07:56:46;28.67;;;13.97;;
44588;SDS011;30298;52.562;13.414;2022-12-19T07:59:11;27.27;;;12.37;;
44588;SDS011;30298;52.562;13.414;2022-12-19T08:01:37;26.20;;;12.18;;
44588;SDS011;30298;52.562;13.414;2022-12-19T08:04:02;31.40;;;13.93;;
44588;SDS011;30298;52.562;13.414;2022-12-19T08:06:27;31.93;;;14.80;;
44588;SDS011;30298;52.562;13.414;2022-12-19T08:08:53;32.10;;;14.05;;
44588;SDS011;30298;52.562;13.414;2022-12-19T08:11:19;34.33;;;13.63;;
44588;SDS011;30298;52.562;13.414;2022-12-19T08:13:51;28.70;;;13.05;;
44588;SDS011;30298;52.562;13.414;2022-12-19T08:16:17;33.35;;;14.25;;
44588;SDS011;30298;52.562;13.414;2022-12-19T08:18:42;30.63;;;13.37;;
44588;SDS011;30298;52.562;13.414;2022-12-19T08:21:08;28.47;;;12.80;;
44588;SDS011;30298;52.562;13.414;2022-12-19T08:23:33;32.05;;;15.13;;
44588;SDS011;30298;52.562;13.414;2022-12-19T08:26:00;26.83;;;12.82;;
44588;SDS011;30298;52.562;13.414;2022-12-19T08:28:27;31.13;;;13.57;;
44588;SDS011;30298;52.562;13.414;2022-12-19T08:30:53;27.92;;;12.38;;
44588;SDS011;30298;52.562;13.414;2022-12-19T08:33:18;32.50;;;13.00;;
44588;SDS011;30298;52.562;13.414;2022-12-19T08:35:43;30.27;;;14.20;;
44588;SDS011;30298;52.562;13.414;2022-12-19T08:38:09;26.93;;;13.00;;
44588;SDS011;30298;52.562;13.414;2022-12-19T08:40:34;31.23;;;13.67;;
44588;SDS011;30298;52.562;13.414;2022-12-19T08:42:59;28.20;;;13.60;;
44588;SDS011;30298;52.562;13.414;2022-12-19T08:45:25;27.50;;;12.95;;
44588;SDS011;30298;52.562;13.414;2022-12-19T08:47:50;29.67;;;12.97;;
44588;SDS011;30298;52.562;13.414;2022-12-19T08:50:15;30.97;;;13.27;;
44588;SDS011;30298;52.562;13.414;2022-12-19T08:52:40;28.07;;;13.40;;
44588;SDS011;30298;52.562;13.414;2022-12-19T08:55:06;28.80;;;12.83;;
44588;SDS011;30298;52.562;13.414;2022-12-19T08:57:32;26.67;;;13.93;;
44588;SDS011;30298;52.562;13.414;2022-12-19T08:59:57;33.90;;;13.50;;
44588;SDS011;30298;52.562;13.414;2022-12-19T09:02:22;31.47;;;13.10;;
44588;SDS011;30298;52.562;13.414;2022-12-19T09:04:48;36.93;;;17.67;;
44588;SDS011;30298;52.562;13.414;2022-12-19T09:07:13;31.65;;;14.00;;
44588;SDS011;30298;52.562;13.414;2022-12-19T09:09:39;29.88;;;13.27;;
44588;SDS011;30298;52.562;13.414;2022-12-19T09:12:04;30.60;;;14.03;;
44588;SDS011;30298;52.562;13.414;2022-12-19T09:14:33;31.23;;;14.63;;
44588;SDS011;30298;52.562;13.414;2022-12-19T09:16:58;34.70;;;14.00;;
44588;SDS011;30298;52.562;13.414;2022-12-19T09:19:24;30.58;;;13.13;;
44588;SDS011;30298;52.562;13.414;2022-12-19T09:21:49;29.30;;;12.80;;
44588;SDS011;30298;52.562;13.414;2022-12-19T09:24:15;28.02;;;13.20;;
44588;SDS011;30298;52.562;13.414;2022-12-19T09:26:40;24.33;;;11.70;;
44588;SDS011;30298;52.562;13.414;2022-12-19T09:29:06;29.90;;;13.27;;
44588;SDS011;30298;52.562;13.414;2022-12-19T09:31:32;30.42;;;13.40;;
44588;SDS011;30298;52.562;13.414;2022-12-19T09:33:57;32.57;;;14.30;;
44588;SDS011;30298;52.562;13.414;2022-12-19T09:36:23;29.77;;;12.80;;
44588;SDS011;30298;52.562;13.414;2022-12-19T09:38:52;27.67;;;12.32;;
44588;SDS011;30298;52.562;13.414;2022-12-19T09:41:25;32.95;;;13.40;;
44588;SDS011;30298;52.562;13.414;2022-12-19T09:46:19;29.60;;;13.53;;
44588;SDS011;30298;52.562;13.414;2022-12-19T09:48:45;28.88;;;12.85;;
44588;SDS011;30298;52.562;13.414;2022-12-19T09:51:28;30.30;;;13.93;;
44588;SDS011;30298;52.562;13.414;2022-12-19T09:56:25;30.77;;;12.75;;
44588;SDS011;30298;52.562;13.414;2022-12-19T09:58:53;30.25;;;14.73;;
44588;SDS011;30298;52.562;13.414;2022-12-19T10:01:25;28.33;;;13.73;;
44588;SDS011;30298;52.562;13.414;2022-12-19T10:03:57;31.45;;;13.55;;
44588;SDS011;30298;52.562;13.414;2022-12-19T10:06:23;32.45;;;14.80;;
44588;SDS011;30298;52.562;13.414;2022-12-19T10:08:49;31.33;;;12.50;;
44588;SDS011;30298;52.562;13.414;2022-12-19T10:16:28;32.33;;;13.73;;
44588;SDS011;30298;52.562;13.414;2022-12-19T10:19:08;29.38;;;13.90;;
44588;SDS011;30298;52.562;13.414;2022-12-19T10:21:40;36.80;;;13.45;;
44588;SDS011;30298;52.562;13.414;2022-12-19T10:26:38;28.73;;;12.60;;
44588;SDS011;30298;52.562;13.414;2022-12-19T10:29:29;27.42;;;13.18;;
44588;SDS011;30298;52.562;13.414;2022-12-19T10:32:21;31.13;;;14.15;;
44588;SDS011;30298;52.562;13.414;2022-12-19T10:34:48;31.48;;;13.32;;
44588;SDS011;30298;52.562;13.414;2022-12-19T10:37:16;27.92;;;12.70;;
44588;SDS011;30298;52.562;13.414;2022-12-19T10:44:51;30.58;;;14.95;;
44588;SDS011;30298;52.562;13.414;2022-12-19T10:47:18;31.88;;;13.70;;
44588;SDS011;30298;52.562;13.414;2022-12-19T10:49:43;30.15;;;13.90;;
44588;SDS011;30298;52.562;13.414;2022-12-19T10:52:09;30.27;;;13.47;;
44588;SDS011;30298;52.562;13.414;2022-12-19T11:05:18;29.20;;;13.45;;
44588;SDS011;30298;52.562;13.414;2022-12-19T11:15:45;26.17;;;12.52;;
44588;SDS011;30298;52.562;13.414;2022-12-19T11:18:11;28.52;;;13.20;;
44588;SDS011;30298;52.562;13.414;2022-12-19T11:20:36;30.42;;;14.02;;
44588;SDS011;30298;52.562;13.414;2022-12-19T11:23:02;33.07;;;15.03;;
44588;SDS011;30298;52.562;13.414;2022-12-19T11:25:39;32.80;;;14.17;;
44588;SDS011;30298;52.562;13.414;2022-12-19T11:30:42;30.55;;;13.85;;
44588;SDS011;30298;52.562;13.414;2022-12-19T11:33:11;29.33;;;14.07;;
44588;SDS011;30298;52.562;13.414;2022-12-19T11:35:48;29.98;;;14.40;;
44588;SDS011;30298;52.562;13.414;2022-12-19T11:38:15;26.75;;;12.90;;
44588;SDS011;30298;52.562;13.414;2022-12-19T11:40:45;29.17;;;13.68;;
44588;SDS011;30298;52.562;13.414;2022-12-19T11:43:30;32.47;;;14.18;;
44588;SDS011;30298;52.562;13.414;2022-12-19T11:46:04;22.67;;;10.25;;
44588;SDS011;30298;52.562;13.414;2022-12-19T11:53:27;31.25;;;14.57;;
44588;SDS011;30298;52.562;13.414;2022-12-19T11:55:55;27.70;;;13.30;;
44588;SDS011;30298;52.562;13.414;2022-12-19T11:58:22;30.75;;;14.20;;
44588;SDS011;30298;52.562;13.414;2022-12-19T12:06:12;28.60;;;13.20;;
44588;SDS011;30298;52.562;13.414;2022-12-19T12:08:52;25.20;;;12.50;;
44588;SDS011;30298;52.562;13.414;2022-12-19T12:14:13;29.33;;;13.93;;
44588;SDS011;30298;52.562;13.414;2022-12-19T12:16:42;29.27;;;12.90;;
44588;SDS011;30298;52.562;13.414;2022-12-19T12:21:42;34.90;;;14.23;;
44588;SDS011;30298;52.562;13.414;2022-12-19T12:26:55;28.75;;;13.45;;
44588;SDS011;30298;52.562;13.414;2022-12-19T12:29:23;30.65;;;14.32;;
44588;SDS011;30298;52.562;13.414;2022-12-19T12:44:57;32.55;;;14.85;;
44588;SDS011;30298;52.562;13.414;2022-12-19T12:47:24;28.50;;;14.05;;
44588;SDS011;30298;52.562;13.414;2022-12-19T12:49:53;27.90;;;12.70;;
44588;SDS011;30298;52.562;13.414;2022-12-19T12:52:21;29.77;;;14.20;;
44588;SDS011;30298;52.562;13.414;2022-12-19T12:54:48;29.58;;;12.95;;
44588;SDS011;30298;52.562;13.414;2022-12-19T12:57:18;33.70;;;13.23;;
44588;SDS011;30298;52.562;13.414;2022-12-19T12:59:45;29.08;;;13.27;;
44588;SDS011;30298;52.562;13.414;2022-12-19T13:02:20;27.45;;;12.02;;
44588;SDS011;30298;52.562;13.414;2022-12-19T13:04:54;30.17;;;14.63;;
44588;SDS011;30298;52.562;13.414;2022-12-19T13:07:27;30.95;;;15.05;;
44588;SDS011;30298;52.562;13.414;2022-12-19T13:12:46;32.10;;;13.77;;
44588;SDS011;30298;52.562;13.414;2022-12-19T13:22:42;32.27;;;14.90;;
44588;SDS011;30298;52.562;13.414;2022-12-19T13:27:40;28.13;;;12.98;;
44588;SDS011;30298;52.562;13.414;2022-12-19T13:35:04;30.08;;;12.63;;
44588;SDS011;30298;52.562;13.414;2022-12-19T13:42:24;27.87;;;13.63;;
44588;SDS011;30298;52.562;13.414;2022-12-19T13:45:11;25.17;;;13.25;;
44588;SDS011;30298;52.562;13.414;2022-12-19T13:47:39;30.42;;;14.27;;
44588;SDS011;30298;52.562;13.414;2022-12-19T13:50:17;37.47;;;16.45;;
44588;SDS011;30298;52.562;13.414;2022-12-19T13:52:49;29.33;;;13.20;;
44588;SDS011;30298;52.562;13.414;2022-12-19T13:55:15;35.08;;;14.85;;
44588;SDS011;30298;52.562;13.414;2022-12-19T13:57:40;33.83;;;15.17;;
44588;SDS011;30298;52.562;13.414;2022-12-19T14:00:12;28.88;;;14.88;;
44588;SDS011;30298;52.562;13.414;2022-12-19T14:02:42;34.05;;;15.25;;
44588;SDS011;30298;52.562;13.414;2022-12-19T14:08:04;29.58;;;13.85;;
44588;SDS011;30298;52.562;13.414;2022-12-19T14:10:33;34.60;;;16.67;;
44588;SDS011;30298;52.562;13.414;2022-12-19T14:13:02;27.92;;;14.50;;
44588;SDS011;30298;52.562;13.414;2022-12-19T14:15:47;17.65;;;9.70;;
44588;SDS011;30298;52.562;13.414;2022-12-19T14:20:47;36.28;;;16.13;;
44588;SDS011;30298;52.562;13.414;2022-12-19T14:23:13;36.47;;;15.90;;
44588;SDS011;30298;52.562;13.414;2022-12-19T14:25:40;36.90;;;15.75;;
44588;SDS011;30298;52.562;13.414;2022-12-19T14:28:07;35.08;;;14.98;;
44588;SDS011;30298;52.562;13.414;2022-12-19T14:30:35;33.47;;;16.95;;
44588;SDS011;30298;52.562;13.414;2022-12-19T14:33:10;37.10;;;16.08;;
44588;SDS011;30298;52.562;13.414;2022-12-19T14:35:38;34.70;;;13.88;;
44588;SDS011;30298;52.562;13.414;2022-12-19T14:38:05;38.00;;;14.77;;
44588;SDS011;30298;52.562;13.414;2022-12-19T14:40:32;36.92;;;15.43;;
44588;SDS011;30298;52.562;13.414;2022-12-19T14:43:07;34.47;;;15.02;;
44588;SDS011;30298;52.562;13.414;2022-12-19T14:46:08;32.22;;;15.40;;
44588;SDS011;30298;52.562;13.414;2022-12-19T14:48:35;32.38;;;15.30;;
44588;SDS011;30298;52.562;13.414;2022-12-19T14:53:33;36.53;;;16.50;;
44588;SDS011;30298;52.562;13.414;2022-12-19T14:56:17;41.05;;;19.20;;
44588;SDS011;30298;52.562;13.414;2022-12-19T14:58:45;35.08;;;17.02;;
44588;SDS011;30298;52.562;13.414;2022-12-19T15:01:21;41.40;;;18.58;;
44588;SDS011;30298;52.562;13.414;2022-12-19T15:03:55;43.65;;;18.33;;
44588;SDS011;30298;52.562;13.414;2022-12-19T15:06:22;42.67;;;18.27;;
44588;SDS011;30298;52.562;13.414;2022-12-19T15:08:49;32.05;;;16.60;;
44588;SDS011;30298;52.562;13.414;2022-12-19T15:14:07;33.55;;;14.38;;
44588;SDS011;30298;52.562;13.414;2022-12-19T15:16:32;37.30;;;16.83;;
44588;SDS011;30298;52.562;13.414;2022-12-19T15:19:01;32.72;;;16.90;;
44588;SDS011;30298;52.562;13.414;2022-12-19T15:21:27;39.63;;;14.77;;
44588;SDS011;30298;52.562;13.414;2022-12-19T15:23:53;42.53;;;17.25;;
44588;SDS011;30298;52.562;13.414;2022-12-19T15:26:28;39.70;;;16.13;;
44588;SDS011;30298;52.562;13.414;2022-12-19T15:28:54;38.30;;;16.92;;
44588;SDS011;30298;52.562;13.414;2022-12-19T15:31:27;49.00;;;19.13;;
44588;SDS011;30298;52.562;13.414;2022-12-19T15:33:53;36.20;;;14.75;;
44588;SDS011;30298;52.562;13.414;2022-12-19T15:36:19;42.35;;;17.92;;
44588;SDS011;30298;52.562;13.414;2022-12-19T15:38:44;28.57;;;14.27;;
44588;SDS011;30298;52.562;13.414;2022-12-19T15:41:10;44.60;;;17.30;;
44588;SDS011;30298;52.562;13.414;2022-12-19T15:46:01;35.92;;;17.15;;
44588;SDS011;30298;52.562;13.414;2022-12-19T15:48:27;43.37;;;18.47;;
44588;SDS011;30298;52.562;13.414;2022-12-19T15:51:01;36.97;;;18.37;;
44588;SDS011;30298;52.562;13.414;2022-12-19T15:53:28;45.15;;;17.75;;
44588;SDS011;30298;52.562;13.414;2022-12-19T15:55:54;40.83;;;18.08;;
44588;SDS011;30298;52.562;13.414;2022-12-19T15:58:20;39.85;;;19.30;;
44588;SDS011;30298;52.562;13.414;2022-12-19T16:00:48;42.33;;;18.35;;
44588;SDS011;30298;52.562;13.414;2022-12-19T16:03:14;44.50;;;17.88;;
44588;SDS011;30298;52.562;13.414;2022-12-19T16:05:39;37.90;;;16.20;;
44588;SDS011;30298;52.562;13.414;2022-12-19T16:08:12;42.47;;;18.37;;
44588;SDS011;30298;52.562;13.414;2022-12-19T16:10:38;44.05;;;17.98;;
44588;SDS011;30298;52.562;13.414;2022-12-19T16:13:04;43.28;;;18.40;;
44588;SDS011;30298;52.562;13.414;2022-12-19T16:15:30;40.57;;;17.77;;
44588;SDS011;30298;52.562;13.414;2022-12-19T16:17:57;40.28;;;18.75;;
44588;SDS011;30298;52.562;13.414;2022-12-19T16:20:26;40.85;;;19.17;;
44588;SDS011;30298;52.562;13.414;2022-12-19T16:22:52;38.97;;;18.55;;
44588;SDS011;30298;52.562;13.414;2022-12-19T16:25:17;31.93;;;15.33;;
44588;SDS011;30298;52.562;13.414;2022-12-19T16:27:43;40.83;;;16.15;;
44588;SDS011;30298;52.562;13.414;2022-12-19T16:30:20;38.42;;;16.73;;
44588;SDS011;30298;52.562;13.414;2022-12-19T16:32:46;37.88;;;18.25;;